sensor_id;sensor_type;location;lat;lon;timestamp;pressure;altitude;pressure_sealevel;temperature;humidity
3960;BME280;1994;48.640;8.894;2023-07-13T00:01:51;96175.91;;;20.62;58.14
3960;BME280;1994;48.640;8.894;2023-07-13T00:04:21;96176.78;;;20.58;58.05
3960;BME280;1994;48.640;8.894;2023-07-13T00:06:48;96173.84;;;20.59;57.90
3960;BME280;1994;48.640;8.894;2023-07-13T00:09:16;96173.19;;;20.54;58.45
3960;BME280;1994;48.640;8.894;2023-07-13T00:11:43;96171.44;;;20.49;58.00
3960;BME280;1994;48.640;8.894;2023-07-13T00:14:09;96167.16;;;20.40;57.96
3960;BME280;1994;48.640;8.894;2023-07-13T00:16:37;96167.16;;;20.40;58.23
3960;BME280;1994;48.640;8.894;2023-07-13T00:19:04;96163.53;;;20.36;58.24
3960;BME280;1994;48.640;8.894;2023-07-13T00:21:30;96161.00;;;20.31;58.19
3960;BME280;1994;48.640;8.894;2023-07-13T00:23:56;96154.47;;;20.28;58.34
3960;BME280;1994;48.640;8.894;2023-07-13T00:26:22;96153.72;;;20.28;58.17
3960;BME280;1994;48.640;8.894;2023-07-13T00:28:48;96153.22;;;20.26;58.53
3960;BME280;1994;48.640;8.894;2023-07-13T00:31:14;96161.09;;;20.26;58.80
3960;BME280;1994;48.640;8.894;2023-07-13T00:33:41;96159.75;;;20.15;58.76
3960;BME280;1994;48.640;8.894;2023-07-13T00:36:08;96150.78;;;20.02;59.28
3960;BME280;1994;48.640;8.894;2023-07-13T00:38:34;96153.06;;;19.77;60.32
3960;BME280;1994;48.640;8.894;2023-07-13T00:41:02;96160.94;;;19.77;60.39
3960;BME280;1994;48.640;8.894;2023-07-13T00:43:29;96160.84;;;19.68;61.64
3960;BME280;1994;48.640;8.894;2023-07-13T00:48:27;96168.78;;;19.50;63.46
3960;BME280;1994;48.640;8.894;2023-07-13T00:50:57;96174.91;;;19.27;64.80
3960;BME280;1994;48.640;8.894;2023-07-13T00:53:27;96167.56;;;19.29;65.04
3960;BME280;1994;48.640;8.894;2023-07-13T00:55:55;96170.66;;;19.31;65.21
3960;BME280;1994;48.640;8.894;2023-07-13T00:58:23;96162.97;;;19.16;65.46
3960;BME280;1994;48.640;8.894;2023-07-13T01:00:51;96176.84;;;19.21;64.56
3960;BME280;1994;48.640;8.894;2023-07-13T01:03:18;96175.91;;;19.31;65.11
3960;BME280;1994;48.640;8.894;2023-07-13T01:05:44;96171.50;;;19.45;64.48
3960;BME280;1994;48.640;8.894;2023-07-13T01:08:12;96172.47;;;19.49;64.43
3960;BME280;1994;48.640;8.894;2023-07-13T01:10:38;96173.25;;;19.49;64.36
3960;BME280;1994;48.640;8.894;2023-07-13T01:13:09;96168.59;;;19.60;64.00
3960;BME280;1994;48.640;8.894;2023-07-13T01:15:44;96166.47;;;19.62;63.68
3960;BME280;1994;48.640;8.894;2023-07-13T01:18:21;96171.78;;;19.75;63.71
3960;BME280;1994;48.640;8.894;2023-07-13T01:20:58;96174.69;;;19.74;62.94
3960;BME280;1994;48.640;8.894;2023-07-13T01:23:27;96168.03;;;19.63;63.25
3960;BME280;1994;48.640;8.894;2023-07-13T01:25:54;96174.44;;;19.57;64.03
3960;BME280;1994;48.640;8.894;2023-07-13T01:28:22;96166.06;;;19.55;63.82
3960;BME280;1994;48.640;8.894;2023-07-13T01:30:49;96166.47;;;19.62;63.22
3960;BME280;1994;48.640;8.894;2023-07-13T01:33:17;96162.16;;;19.52;63.39
3960;BME280;1994;48.640;8.894;2023-07-13T01:35:45;96164.09;;;19.47;63.44
3960;BME280;1994;48.640;8.894;2023-07-13T01:38:16;96166.81;;;19.42;63.85
3960;BME280;1994;48.640;8.894;2023-07-13T01:40:43;96179.03;;;19.33;63.81
3960;BME280;1994;48.640;8.894;2023-07-13T01:43:09;96179.59;;;19.30;64.30
3960;BME280;1994;48.640;8.894;2023-07-13T01:45:35;96182.31;;;19.25;64.31
3960;BME280;1994;48.640;8.894;2023-07-13T01:48:01;96174.34;;;19.30;64.50
3960;BME280;1994;48.640;8.894;2023-07-13T01:50:27;96171.66;;;19.35;64.77
3960;BME280;1994;48.640;8.894;2023-07-13T01:52:53;96178.63;;;19.26;64.54
3960;BME280;1994;48.640;8.894;2023-07-13T01:55:20;96179.72;;;19.20;64.88
3960;BME280;1994;48.640;8.894;2023-07-13T01:57:46;96177.75;;;19.12;64.14
3960;BME280;1994;48.640;8.894;2023-07-13T02:00:13;96185.72;;;19.07;64.17
3960;BME280;1994;48.640;8.894;2023-07-13T02:02:39;96182.44;;;18.96;64.56
3960;BME280;1994;48.640;8.894;2023-07-13T02:05:06;96178.53;;;18.94;64.79
3960;BME280;1994;48.640;8.894;2023-07-13T02:07:32;96176.03;;;18.84;64.99
3960;BME280;1994;48.640;8.894;2023-07-13T02:09:58;96177.16;;;18.78;65.36
3960;BME280;1994;48.640;8.894;2023-07-13T02:12:24;96187.94;;;18.58;66.02
3960;BME280;1994;48.640;8.894;2023-07-13T02:14:50;96188.44;;;18.60;66.21
3960;BME280;1994;48.640;8.894;2023-07-13T02:17:15;96188.25;;;18.75;66.04
3960;BME280;1994;48.640;8.894;2023-07-13T02:19:41;96178.94;;;18.64;65.98
3960;BME280;1994;48.640;8.894;2023-07-13T02:22:07;96185.25;;;18.63;66.19
3960;BME280;1994;48.640;8.894;2023-07-13T02:24:33;96183.13;;;18.65;65.98
3960;BME280;1994;48.640;8.894;2023-07-13T02:26:58;96185.88;;;18.55;66.16
3960;BME280;1994;48.640;8.894;2023-07-13T02:29:24;96186.50;;;18.47;66.67
3960;BME280;1994;48.640;8.894;2023-07-13T02:31:50;96190.69;;;18.48;66.26
3960;BME280;1994;48.640;8.894;2023-07-13T02:34:16;96191.75;;;18.47;65.60
3960;BME280;1994;48.640;8.894;2023-07-13T02:36:41;96195.31;;;18.56;65.62
3960;BME280;1994;48.640;8.894;2023-07-13T02:39:07;96194.66;;;18.45;66.30
3960;BME280;1994;48.640;8.894;2023-07-13T02:41:34;96203.00;;;18.47;66.83
3960;BME280;1994;48.640;8.894;2023-07-13T02:44:00;96208.03;;;18.44;66.79
3960;BME280;1994;48.640;8.894;2023-07-13T02:46:37;96204.41;;;18.40;66.96
3960;BME280;1994;48.640;8.894;2023-07-13T02:49:03;96200.50;;;18.37;67.01
3960;BME280;1994;48.640;8.894;2023-07-13T02:51:30;96197.88;;;18.37;66.88
3960;BME280;1994;48.640;8.894;2023-07-13T02:53:56;96201.78;;;18.40;66.66
3960;BME280;1994;48.640;8.894;2023-07-13T02:56:25;96207.81;;;18.40;67.08
3960;BME280;1994;48.640;8.894;2023-07-13T02:58:52;96202.25;;;18.47;66.99
3960;BME280;1994;48.640;8.894;2023-07-13T03:01:18;96197.06;;;18.42;67.11
3960;BME280;1994;48.640;8.894;2023-07-13T03:03:45;96192.75;;;18.51;67.25
3960;BME280;1994;48.640;8.894;2023-07-13T03:06:12;96204.13;;;18.41;67.42
3960;BME280;1994;48.640;8.894;2023-07-13T03:08:39;96199.22;;;18.35;67.70
3960;BME280;1994;48.640;8.894;2023-07-13T03:11:15;96196.34;;;18.31;67.94
3960;BME280;1994;48.640;8.894;2023-07-13T03:13:42;96200.81;;;18.36;67.61
3960;BME280;1994;48.640;8.894;2023-07-13T03:16:09;96199.78;;;18.32;67.93
3960;BME280;1994;48.640;8.894;2023-07-13T03:18:36;96199.69;;;18.42;67.81
3960;BME280;1994;48.640;8.894;2023-07-13T03:21:03;96202.44;;;18.27;67.83
3960;BME280;1994;48.640;8.894;2023-07-13T03:23:29;96210.78;;;18.29;68.17
3960;BME280;1994;48.640;8.894;2023-07-13T03:26:14;96211.84;;;18.33;68.32
3960;BME280;1994;48.640;8.894;2023-07-13T03:28:41;96206.66;;;18.23;69.13
3960;BME280;1994;48.640;8.894;2023-07-13T03:31:20;96207.34;;;18.10;70.03
3960;BME280;1994;48.640;8.894;2023-07-13T03:33:47;96209.28;;;18.23;69.68
3960;BME280;1994;48.640;8.894;2023-07-13T03:36:22;96215.53;;;18.32;69.47
3960;BME280;1994;48.640;8.894;2023-07-13T03:38:51;96214.19;;;18.34;69.67
3960;BME280;1994;48.640;8.894;2023-07-13T03:41:18;96217.53;;;18.40;69.15
3960;BME280;1994;48.640;8.894;2023-07-13T03:43:44;96217.09;;;18.33;69.51
3960;BME280;1994;48.640;8.894;2023-07-13T03:46:10;96224.44;;;18.31;69.74
3960;BME280;1994;48.640;8.894;2023-07-13T03:48:35;96217.09;;;18.33;70.34
3960;BME280;1994;48.640;8.894;2023-07-13T03:51:02;96225.69;;;18.38;70.75
3960;BME280;1994;48.640;8.894;2023-07-13T03:53:28;96232.81;;;18.33;70.55
3960;BME280;1994;48.640;8.894;2023-07-13T03:55:53;96225.91;;;18.42;70.82
3960;BME280;1994;48.640;8.894;2023-07-13T03:58:35;96230.38;;;18.41;70.16
3960;BME280;1994;48.640;8.894;2023-07-13T04:01:03;96231.16;;;18.42;70.33
3960;BME280;1994;48.640;8.894;2023-07-13T04:03:29;96235.81;;;18.45;70.62
3960;BME280;1994;48.640;8.894;2023-07-13T04:06:02;96240.06;;;18.41;69.77
3960;BME280;1994;48.640;8.894;2023-07-13T04:08:34;96243.75;;;18.40;69.54
3960;BME280;1994;48.640;8.894;2023-07-13T04:11:03;96245.41;;;18.31;69.18
3960;BME280;1994;48.640;8.894;2023-07-13T04:13:30;96245.88;;;18.38;69.41
3960;BME280;1994;48.640;8.894;2023-07-13T04:15:56;96251.13;;;18.38;69.46
3960;BME280;1994;48.640;8.894;2023-07-13T04:18:22;96246.38;;;18.40;70.05
3960;BME280;1994;48.640;8.894;2023-07-13T04:20:49;96246.19;;;18.31;69.45
3960;BME280;1994;48.640;8.894;2023-07-13T04:23:16;96255.34;;;18.34;70.04
3960;BME280;1994;48.640;8.894;2023-07-13T04:25:46;96248.44;;;18.43;69.61
3960;BME280;1994;48.640;8.894;2023-07-13T04:28:16;96248.88;;;18.50;68.54
3960;BME280;1994;48.640;8.894;2023-07-13T04:30:43;96255.53;;;18.66;68.09
3960;BME280;1994;48.640;8.894;2023-07-13T04:33:09;96254.56;;;18.57;68.67
3960;BME280;1994;48.640;8.894;2023-07-13T04:35:35;96255.69;;;18.51;68.16
3960;BME280;1994;48.640;8.894;2023-07-13T04:38:01;96251.41;;;18.36;68.86
3960;BME280;1994;48.640;8.894;2023-07-13T04:40:28;96251.41;;;18.36;69.80
3960;BME280;1994;48.640;8.894;2023-07-13T04:42:54;96250.94;;;18.29;71.00
3960;BME280;1994;48.640;8.894;2023-07-13T04:45:21;96250.19;;;18.24;71.20
3960;BME280;1994;48.640;8.894;2023-07-13T04:47:47;96267.81;;;18.18;71.63
3960;BME280;1994;48.640;8.894;2023-07-13T04:50:14;96267.78;;;18.23;71.41
3960;BME280;1994;48.640;8.894;2023-07-13T04:52:44;96269.81;;;18.03;71.51
3960;BME280;1994;48.640;8.894;2023-07-13T04:55:10;96261.44;;;18.01;72.63
3960;BME280;1994;48.640;8.894;2023-07-13T04:57:36;96263.03;;;18.25;72.03
3960;BME280;1994;48.640;8.894;2023-07-13T05:00:04;96260.94;;;18.27;70.96
3960;BME280;1994;48.640;8.894;2023-07-13T05:02:30;96263.81;;;18.26;70.43
3960;BME280;1994;48.640;8.894;2023-07-13T05:04:57;96271.13;;;18.29;69.81
3960;BME280;1994;48.640;8.894;2023-07-13T05:07:23;96266.94;;;18.28;70.28
3960;BME280;1994;48.640;8.894;2023-07-13T05:09:49;96270.84;;;18.30;70.81
3960;BME280;1994;48.640;8.894;2023-07-13T05:12:15;96279.56;;;18.26;71.07
3960;BME280;1994;48.640;8.894;2023-07-13T05:14:40;96272.88;;;18.62;69.65
3960;BME280;1994;48.640;8.894;2023-07-13T05:17:06;96272.44;;;18.78;69.13
3960;BME280;1994;48.640;8.894;2023-07-13T05:19:32;96278.53;;;18.74;67.65
3960;BME280;1994;48.640;8.894;2023-07-13T05:21:58;96279.34;;;18.93;67.86
3960;BME280;1994;48.640;8.894;2023-07-13T05:24:23;96280.78;;;19.04;67.81
3960;BME280;1994;48.640;8.894;2023-07-13T05:26:49;96272.41;;;19.02;67.73
3960;BME280;1994;48.640;8.894;2023-07-13T05:29:15;96280.78;;;19.04;69.04
3960;BME280;1994;48.640;8.894;2023-07-13T05:31:41;96283.22;;;19.19;68.78
3960;BME280;1994;48.640;8.894;2023-07-13T05:34:06;96281.78;;;19.08;69.28
3960;BME280;1994;48.640;8.894;2023-07-13T05:36:32;96292.66;;;19.20;69.04
3960;BME280;1994;48.640;8.894;2023-07-13T05:38:58;96287.03;;;19.08;69.81
3960;BME280;1994;48.640;8.894;2023-07-13T05:41:24;96292.06;;;19.04;69.71
3960;BME280;1994;48.640;8.894;2023-07-13T05:43:50;96290.03;;;19.20;69.31
3960;BME280;1994;48.640;8.894;2023-07-13T05:46:15;96294.59;;;19.33;70.06
3960;BME280;1994;48.640;8.894;2023-07-13T05:48:41;96303.69;;;19.22;65.69
3960;BME280;1994;48.640;8.894;2023-07-13T05:51:08;96308.03;;;19.08;68.74
3960;BME280;1994;48.640;8.894;2023-07-13T05:53:34;96310.25;;;19.01;70.56
3960;BME280;1994;48.640;8.894;2023-07-13T05:56:00;96306.50;;;19.07;71.54
3960;BME280;1994;48.640;8.894;2023-07-13T05:58:26;96316.34;;;19.15;70.69
3960;BME280;1994;48.640;8.894;2023-07-13T06:01:01;96316.84;;;19.17;70.53
3960;BME280;1994;48.640;8.894;2023-07-13T06:03:27;96320.75;;;19.19;67.36
3960;BME280;1994;48.640;8.894;2023-07-13T06:05:53;96321.53;;;19.20;68.79
3960;BME280;1994;48.640;8.894;2023-07-13T06:08:19;96319.44;;;19.22;69.25
3960;BME280;1994;48.640;8.894;2023-07-13T06:10:45;96328.47;;;19.53;66.94
3960;BME280;1994;48.640;8.894;2023-07-13T06:13:10;96334.31;;;19.50;65.66
3960;BME280;1994;48.640;8.894;2023-07-13T06:15:36;96335.22;;;19.59;65.65
3960;BME280;1994;48.640;8.894;2023-07-13T06:18:02;96342.75;;;19.47;66.02
3960;BME280;1994;48.640;8.894;2023-07-13T06:20:28;96344.03;;;19.68;65.67
3960;BME280;1994;48.640;8.894;2023-07-13T06:22:54;96337.34;;;19.94;64.04
3960;BME280;1994;48.640;8.894;2023-07-13T06:25:20;96339.91;;;19.99;63.67
3960;BME280;1994;48.640;8.894;2023-07-13T06:27:46;96343.81;;;19.83;64.78
3960;BME280;1994;48.640;8.894;2023-07-13T06:30:12;96344.16;;;19.95;63.80
3960;BME280;1994;48.640;8.894;2023-07-13T06:32:38;96342.59;;;19.94;63.20
3960;BME280;1994;48.640;8.894;2023-07-13T06:35:04;96347.88;;;19.94;60.18
3960;BME280;1994;48.640;8.894;2023-07-13T06:37:30;96341.16;;;20.20;58.46
3960;BME280;1994;48.640;8.894;2023-07-13T06:39:56;96346.91;;;20.54;57.76
3960;BME280;1994;48.640;8.894;2023-07-13T06:42:21;96336.16;;;20.64;55.17
3960;BME280;1994;48.640;8.894;2023-07-13T06:44:47;96343.03;;;20.78;55.30
3960;BME280;1994;48.640;8.894;2023-07-13T06:47:13;96342.47;;;20.95;53.62
3960;BME280;1994;48.640;8.894;2023-07-13T06:49:38;96342.63;;;20.85;53.96
3960;BME280;1994;48.640;8.894;2023-07-13T06:52:05;96347.16;;;20.98;53.16
3960;BME280;1994;48.640;8.894;2023-07-13T06:54:30;96344.69;;;21.15;53.00
3960;BME280;1994;48.640;8.894;2023-07-13T06:56:56;96353.34;;;21.29;52.82
3960;BME280;1994;48.640;8.894;2023-07-13T06:59:22;96358.06;;;21.32;53.14
3960;BME280;1994;48.640;8.894;2023-07-13T07:01:47;96360.69;;;21.32;51.98
3960;BME280;1994;48.640;8.894;2023-07-13T07:04:13;96364.47;;;21.53;52.20
3960;BME280;1994;48.640;8.894;2023-07-13T07:06:39;96361.31;;;21.51;51.92
3960;BME280;1994;48.640;8.894;2023-07-13T07:09:04;96358.59;;;21.56;50.40
3960;BME280;1994;48.640;8.894;2023-07-13T07:11:30;96358.00;;;21.59;50.55
3960;BME280;1994;48.640;8.894;2023-07-13T07:13:56;96364.25;;;21.63;50.69
3960;BME280;1994;48.640;8.894;2023-07-13T07:16:23;96357.25;;;21.45;51.74
3960;BME280;1994;48.640;8.894;2023-07-13T07:18:49;96356.78;;;21.29;51.48
3960;BME280;1994;48.640;8.894;2023-07-13T07:21:15;96357.84;;;21.42;51.92
3960;BME280;1994;48.640;8.894;2023-07-13T07:23:42;96360.72;;;21.67;51.49
3960;BME280;1994;48.640;8.894;2023-07-13T07:26:07;96363.25;;;21.86;49.51
3960;BME280;1994;48.640;8.894;2023-07-13T07:28:35;96360.25;;;22.01;48.97
3960;BME280;1994;48.640;8.894;2023-07-13T07:31:01;96357.00;;;21.82;49.06
3960;BME280;1994;48.640;8.894;2023-07-13T07:33:27;96348.28;;;22.17;47.74
3960;BME280;1994;48.640;8.894;2023-07-13T07:35:53;96350.16;;;22.25;47.92
3960;BME280;1994;48.640;8.894;2023-07-13T07:38:19;96347.28;;;22.57;46.04
3960;BME280;1994;48.640;8.894;2023-07-13T07:40:44;96363.47;;;22.64;45.85
3960;BME280;1994;48.640;8.894;2023-07-13T07:43:12;96357.59;;;22.67;45.61
3960;BME280;1994;48.640;8.894;2023-07-13T07:45:39;96356.13;;;22.52;45.46
3960;BME280;1994;48.640;8.894;2023-07-13T07:48:06;96359.75;;;22.65;45.00
3960;BME280;1994;48.640;8.894;2023-07-13T07:50:33;96360.09;;;22.72;45.93
3960;BME280;1994;48.640;8.894;2023-07-13T07:52:58;96349.59;;;22.89;46.47
3960;BME280;1994;48.640;8.894;2023-07-13T07:55:25;96356.50;;;23.07;44.20
3960;BME280;1994;48.640;8.894;2023-07-13T07:57:55;96355.22;;;22.96;42.75
3960;BME280;1994;48.640;8.894;2023-07-13T08:00:22;96355.28;;;23.13;43.38
3960;BME280;1994;48.640;8.894;2023-07-13T08:02:47;96361.19;;;23.10;43.52
3960;BME280;1994;48.640;8.894;2023-07-13T08:05:13;96359.91;;;23.38;43.11
3960;BME280;1994;48.640;8.894;2023-07-13T08:07:40;96362.56;;;23.55;42.58
3960;BME280;1994;48.640;8.894;2023-07-13T08:10:07;96367.41;;;23.78;40.91
3960;BME280;1994;48.640;8.894;2023-07-13T08:12:37;96366.06;;;23.98;41.12
3960;BME280;1994;48.640;8.894;2023-07-13T08:15:06;96358.88;;;24.07;38.97
3960;BME280;1994;48.640;8.894;2023-07-13T08:17:32;96364.78;;;24.21;40.12
3960;BME280;1994;48.640;8.894;2023-07-13T08:19:58;96360.41;;;24.42;39.08
3960;BME280;1994;48.640;8.894;2023-07-13T08:22:23;96351.69;;;24.33;39.53
3960;BME280;1994;48.640;8.894;2023-07-13T08:24:49;96362.06;;;24.63;40.24
3960;BME280;1994;48.640;8.894;2023-07-13T08:27:25;96367.75;;;24.91;38.38
3960;BME280;1994;48.640;8.894;2023-07-13T08:29:52;96366.81;;;23.90;39.20
3960;BME280;1994;48.640;8.894;2023-07-13T08:32:20;96364.00;;;24.37;39.81
3960;BME280;1994;48.640;8.894;2023-07-13T08:34:47;96358.97;;;24.61;39.68
3960;BME280;1994;48.640;8.894;2023-07-13T08:37:13;96360.53;;;25.00;38.86
3960;BME280;1994;48.640;8.894;2023-07-13T08:39:39;96361.00;;;24.47;38.13
3960;BME280;1994;48.640;8.894;2023-07-13T08:42:15;96367.19;;;24.77;39.42
3960;BME280;1994;48.640;8.894;2023-07-13T08:48:19;96361.88;;;25.52;36.98
3960;BME280;1994;48.640;8.894;2023-07-13T08:51:21;96369.75;;;26.10;36.46
3960;BME280;1994;48.640;8.894;2023-07-13T08:53:54;96365.06;;;26.60;35.18
3960;BME280;1994;48.640;8.894;2023-07-13T08:56:28;96359.34;;;26.70;34.66
3960;BME280;1994;48.640;8.894;2023-07-13T08:59:14;96368.44;;;26.93;35.32
3960;BME280;1994;48.640;8.894;2023-07-13T09:04:36;96367.31;;;25.76;36.51
3960;BME280;1994;48.640;8.894;2023-07-13T09:15:32;96364.28;;;26.59;35.90
3960;BME280;1994;48.640;8.894;2023-07-13T09:21:13;96364.94;;;27.25;35.37
3960;BME280;1994;48.640;8.894;2023-07-13T09:23:40;96364.16;;;27.48;35.49
3960;BME280;1994;48.640;8.894;2023-07-13T09:28:46;96358.47;;;27.74;34.71
3960;BME280;1994;48.640;8.894;2023-07-13T09:31:24;96361.53;;;27.88;33.67
3960;BME280;1994;48.640;8.894;2023-07-13T09:33:51;96370.91;;;27.10;33.81
3960;BME280;1994;48.640;8.894;2023-07-13T09:36:24;96358.59;;;26.49;36.84
3960;BME280;1994;48.640;8.894;2023-07-13T09:39:24;96361.78;;;26.75;35.71
3960;BME280;1994;48.640;8.894;2023-07-13T09:42:07;96356.69;;;26.82;36.15
3960;BME280;1994;48.640;8.894;2023-07-13T09:47:30;96364.75;;;27.18;35.17
3960;BME280;1994;48.640;8.894;2023-07-13T09:49:59;96359.16;;;26.87;35.81
3960;BME280;1994;48.640;8.894;2023-07-13T09:52:26;96360.22;;;26.74;35.95
3960;BME280;1994;48.640;8.894;2023-07-13T09:54:54;96367.97;;;26.34;36.81
3960;BME280;1994;48.640;8.894;2023-07-13T09:57:27;96358.75;;;26.32;37.70
3960;BME280;1994;48.640;8.894;2023-07-13T09:59:55;96360.34;;;26.12;36.68
3960;BME280;1994;48.640;8.894;2023-07-13T10:02:33;96358.78;;;26.11;37.08
3960;BME280;1994;48.640;8.894;2023-07-13T10:05:11;96358.66;;;26.08;36.79
3960;BME280;1994;48.640;8.894;2023-07-13T10:07:44;96356.22;;;26.68;37.33
3960;BME280;1994;48.640;8.894;2023-07-13T10:10:18;96362.03;;;27.06;35.50
3960;BME280;1994;48.640;8.894;2023-07-13T10:12:46;96355.56;;;26.71;35.50
3960;BME280;1994;48.640;8.894;2023-07-13T10:15:24;96354.91;;;26.74;36.25
3960;BME280;1994;48.640;8.894;2023-07-13T10:17:55;96362.63;;;26.55;34.69
3960;BME280;1994;48.640;8.894;2023-07-13T10:20:24;96363.91;;;25.96;34.29
3960;BME280;1994;48.640;8.894;2023-07-13T10:23:04;96365.03;;;25.95;35.70
3960;BME280;1994;48.640;8.894;2023-07-13T10:25:38;96358.28;;;26.30;35.30
3960;BME280;1994;48.640;8.894;2023-07-13T10:28:30;96358.66;;;26.73;34.53
3960;BME280;1994;48.640;8.894;2023-07-13T10:31:00;96363.00;;;26.45;35.21
3960;BME280;1994;48.640;8.894;2023-07-13T10:33:27;96365.50;;;26.09;34.31
3960;BME280;1994;48.640;8.894;2023-07-13T10:36:10;96363.41;;;25.73;34.26
3960;BME280;1994;48.640;8.894;2023-07-13T10:38:38;96362.81;;;25.97;34.07
3960;BME280;1994;48.640;8.894;2023-07-13T10:41:15;96358.50;;;26.25;35.05
3960;BME280;1994;48.640;8.894;2023-07-13T10:43:46;96361.13;;;26.78;34.82
3960;BME280;1994;48.640;8.894;2023-07-13T10:46:15;96370.69;;;27.15;33.06
3960;BME280;1994;48.640;8.894;2023-07-13T10:48:45;96362.59;;;27.47;32.57
3960;BME280;1994;48.640;8.894;2023-07-13T10:51:18;96352.47;;;27.65;30.85
3960;BME280;1994;48.640;8.894;2023-07-13T10:53:47;96355.13;;;27.77;31.29
3960;BME280;1994;48.640;8.894;2023-07-13T10:56:30;96355.38;;;27.84;32.20
3960;BME280;1994;48.640;8.894;2023-07-13T10:59:16;96355.56;;;27.91;31.53
3960;BME280;1994;48.640;8.894;2023-07-13T11:01:57;96345.84;;;28.10;31.26
3960;BME280;1994;48.640;8.894;2023-07-13T11:04:27;96344.72;;;27.60;31.61
3960;BME280;1994;48.640;8.894;2023-07-13T11:07:06;96342.91;;;27.76;32.30
3960;BME280;1994;48.640;8.894;2023-07-13T11:09:40;96344.97;;;27.67;30.83
3960;BME280;1994;48.640;8.894;2023-07-13T11:15:02;96347.84;;;27.50;30.13
3960;BME280;1994;48.640;8.894;2023-07-13T11:17:53;96330.47;;;27.92;30.57
3960;BME280;1994;48.640;8.894;2023-07-13T11:20:37;96333.31;;;28.11;29.83
3960;BME280;1994;48.640;8.894;2023-07-13T11:23:18;96335.72;;;28.43;29.95
3960;BME280;1994;48.640;8.894;2023-07-13T11:25:45;96335.63;;;28.40;29.25
3960;BME280;1994;48.640;8.894;2023-07-13T11:33:53;96336.50;;;27.65;27.60
3960;BME280;1994;48.640;8.894;2023-07-13T11:36:24;96325.63;;;27.82;28.40
3960;BME280;1994;48.640;8.894;2023-07-13T11:39:18;96336.06;;;27.75;28.52
3960;BME280;1994;48.640;8.894;2023-07-13T11:41:51;96323.50;;;27.36;29.53
3960;BME280;1994;48.640;8.894;2023-07-13T11:44:21;96332.03;;;27.93;28.21
3960;BME280;1994;48.640;8.894;2023-07-13T11:47:00;96322.97;;;27.70;28.92
3960;BME280;1994;48.640;8.894;2023-07-13T11:49:31;96316.38;;;27.04;29.66
3960;BME280;1994;48.640;8.894;2023-07-13T11:51:58;96328.34;;;26.98;28.87
3960;BME280;1994;48.640;8.894;2023-07-13T11:54:30;96329.66;;;27.16;30.12
3960;BME280;1994;48.640;8.894;2023-07-13T11:57:24;96336.81;;;27.24;28.96
3960;BME280;1994;48.640;8.894;2023-07-13T11:59:52;96334.78;;;27.57;29.33
3960;BME280;1994;48.640;8.894;2023-07-13T12:02:37;96337.22;;;28.29;29.22
3960;BME280;1994;48.640;8.894;2023-07-13T12:05:05;96333.28;;;28.66;27.94
3960;BME280;1994;48.640;8.894;2023-07-13T12:07:33;96336.88;;;28.89;27.62
3960;BME280;1994;48.640;8.894;2023-07-13T12:10:15;96336.34;;;28.68;27.05
3960;BME280;1994;48.640;8.894;2023-07-13T12:13:02;96329.16;;;29.15;27.40
3960;BME280;1994;48.640;8.894;2023-07-13T12:15:39;96329.81;;;28.81;27.39
3960;BME280;1994;48.640;8.894;2023-07-13T12:18:16;96319.09;;;28.93;26.85
3960;BME280;1994;48.640;8.894;2023-07-13T12:20:45;96338.75;;;29.35;25.52
3960;BME280;1994;48.640;8.894;2023-07-13T12:23:27;96337.31;;;29.72;26.26
3960;BME280;1994;48.640;8.894;2023-07-13T12:25:54;96333.16;;;29.55;24.81
3960;BME280;1994;48.640;8.894;2023-07-13T12:28:46;96329.44;;;29.60;25.22
3960;BME280;1994;48.640;8.894;2023-07-13T12:34:10;96329.75;;;29.74;24.98
3960;BME280;1994;48.640;8.894;2023-07-13T12:37:01;96325.94;;;28.63;25.49
3960;BME280;1994;48.640;8.894;2023-07-13T12:39:36;96333.38;;;27.87;25.01
3960;BME280;1994;48.640;8.894;2023-07-13T12:42:31;96311.84;;;27.40;26.67
3960;BME280;1994;48.640;8.894;2023-07-13T12:45:15;96324.13;;;27.96;27.15
3960;BME280;1994;48.640;8.894;2023-07-13T12:47:43;96327.75;;;28.16;27.61
3960;BME280;1994;48.640;8.894;2023-07-13T12:50:17;96329.72;;;28.77;26.60
3960;BME280;1994;48.640;8.894;2023-07-13T12:52:44;96328.63;;;29.25;26.22
3960;BME280;1994;48.640;8.894;2023-07-13T12:55:19;96333.03;;;29.86;25.35
3960;BME280;1994;48.640;8.894;2023-07-13T12:57:56;96325.69;;;30.18;24.99
3960;BME280;1994;48.640;8.894;2023-07-13T13:00:36;96330.78;;;30.07;25.18
3960;BME280;1994;48.640;8.894;2023-07-13T13:03:47;96324.97;;;30.40;24.72
3960;BME280;1994;48.640;8.894;2023-07-13T13:08:41;96330.41;;;30.88;23.85
3960;BME280;1994;48.640;8.894;2023-07-13T13:11:09;96331.25;;;29.56;24.12
3960;BME280;1994;48.640;8.894;2023-07-13T13:13:35;96330.28;;;29.83;26.13
3960;BME280;1994;48.640;8.894;2023-07-13T13:16:31;96326.78;;;29.98;24.83
3960;BME280;1994;48.640;8.894;2023-07-13T13:19:12;96323.72;;;30.15;25.35
3960;BME280;1994;48.640;8.894;2023-07-13T13:21:38;96326.25;;;30.68;24.98
3960;BME280;1994;48.640;8.894;2023-07-13T13:24:15;96320.97;;;30.72;24.35
3960;BME280;1994;48.640;8.894;2023-07-13T13:26:42;96324.81;;;30.33;24.84
3960;BME280;1994;48.640;8.894;2023-07-13T13:29:13;96329.25;;;29.53;26.28
3960;BME280;1994;48.640;8.894;2023-07-13T13:31:39;96323.28;;;29.94;26.09
3960;BME280;1994;48.640;8.894;2023-07-13T13:34:15;96332.25;;;30.20;27.02
3960;BME280;1994;48.640;8.894;2023-07-13T13:36:43;96329.84;;;30.57;25.57
3960;BME280;1994;48.640;8.894;2023-07-13T13:39:35;96323.94;;;30.67;24.68
3960;BME280;1994;48.640;8.894;2023-07-13T13:42:02;96306.97;;;29.80;26.67
3960;BME280;1994;48.640;8.894;2023-07-13T13:44:28;96312.78;;;30.65;25.74
3960;BME280;1994;48.640;8.894;2023-07-13T13:46:55;96321.66;;;30.27;25.65
3960;BME280;1994;48.640;8.894;2023-07-13T13:49:24;96314.34;;;30.66;26.41
3960;BME280;1994;48.640;8.894;2023-07-13T13:51:53;96317.53;;;30.94;27.47
3960;BME280;1994;48.640;8.894;2023-07-13T13:54:20;96306.53;;;31.77;26.06
3960;BME280;1994;48.640;8.894;2023-07-13T13:56:49;96316.47;;;31.76;24.56
3960;BME280;1994;48.640;8.894;2023-07-13T13:59:15;96311.56;;;31.56;25.95
3960;BME280;1994;48.640;8.894;2023-07-13T14:01:47;96312.97;;;31.46;25.08
3960;BME280;1994;48.640;8.894;2023-07-13T14:04:20;96306.28;;;31.89;23.49
3960;BME280;1994;48.640;8.894;2023-07-13T14:06:47;96314.97;;;31.79;23.39
3960;BME280;1994;48.640;8.894;2023-07-13T14:09:18;96305.59;;;31.14;23.27
3960;BME280;1994;48.640;8.894;2023-07-13T14:11:45;96308.06;;;31.52;23.43
3960;BME280;1994;48.640;8.894;2023-07-13T14:14:22;96309.22;;;31.77;24.54
3960;BME280;1994;48.640;8.894;2023-07-13T14:16:49;96313.63;;;31.66;24.76